Terminal Aerodrome Forecast
Issued by NWS

Home | Current Version | Previous Version | Text Only | Print | Product List | Glossary On
Versions: 1 2 3 4 5 6 7 8 9 10 11 12 13 14 15
000
FTUS43 KAPX 221100
TAFMBL
TAF
KMBL 221123Z 2212/2312 32006KT P6SM SCT023
     FM221700 28009KT P6SM SCT050
     FM222000 25009KT P6SM SCT050
     FM222300 25003KT P6SM SKC
      AMD LTD TO CLD VIS AND WIND=

USA.gov is the U.S. government's official web portal to all federal, state and local government web resources and services.